createdAt,value
2023-03-19T00:00:31.574Z,8.47
2023-03-19T00:02:59.706Z,8.50
2023-03-19T00:05:28.159Z,8.40
2023-03-19T00:07:57.883Z,8.88
2023-03-19T00:10:26.014Z,7.87
2023-03-19T00:12:53.918Z,8.83
2023-03-19T00:15:22.271Z,8.30
2023-03-19T00:17:50.165Z,9.87
2023-03-19T00:20:20.284Z,9.10
2023-03-19T00:22:48.221Z,9.43
2023-03-19T00:25:17.855Z,9.70
2023-03-19T00:27:46.241Z,8.57
2023-03-19T00:30:15.011Z,8.40
2023-03-19T00:32:43.307Z,8.23
2023-03-19T00:35:11.783Z,8.73
2023-03-19T00:37:39.694Z,9.10
2023-03-19T00:40:10.532Z,10.03
2023-03-19T00:42:39.802Z,9.40
2023-03-19T00:45:09.063Z,9.60
2023-03-19T00:47:37.156Z,10.07
2023-03-19T00:50:06.496Z,10.50
2023-03-19T00:52:34.503Z,10.00
2023-03-19T00:55:02.797Z,9.70
2023-03-19T00:57:30.957Z,9.63
2023-03-19T01:00:00.479Z,10.83
2023-03-19T01:02:28.415Z,10.10
2023-03-19T01:04:56.468Z,9.37
2023-03-19T01:07:24.844Z,9.93
2023-03-19T01:09:52.992Z,10.50
2023-03-19T01:12:21.156Z,10.30
2023-03-19T01:14:49.059Z,9.50
2023-03-19T01:17:18.473Z,10.03
2023-03-19T01:19:46.567Z,10.40
2023-03-19T01:22:16.579Z,9.90
2023-03-19T01:24:44.791Z,9.00
2023-03-19T07:51:59.170Z,5.93
2023-03-19T07:54:27.476Z,4.30
2023-03-19T07:56:55.492Z,5.27
2023-03-19T07:59:23.547Z,4.00
2023-03-19T08:01:51.782Z,3.50
2023-03-19T08:04:19.871Z,4.13
2023-03-19T08:06:48.255Z,4.53
2023-03-19T08:09:17.832Z,3.60
2023-03-19T08:11:45.874Z,3.63
2023-03-19T08:14:13.819Z,3.80
2023-03-19T08:16:42.095Z,4.10
2023-03-19T08:19:13.626Z,3.40
2023-03-19T08:21:41.528Z,4.10
2023-03-19T08:24:09.963Z,4.80
2023-03-19T08:26:39.401Z,3.78
2023-03-19T08:29:08.265Z,4.00
2023-03-19T08:31:37.322Z,4.70
2023-03-19T08:34:06.128Z,3.73
2023-03-19T08:36:34.110Z,3.87
2023-03-19T08:39:02.258Z,4.30
2023-03-19T08:41:30.310Z,4.23
2023-03-19T08:43:59.882Z,4.10
2023-03-19T08:46:29.189Z,3.80
2023-03-19T08:48:57.499Z,3.80
2023-03-19T08:51:26.215Z,4.20
2023-03-19T08:53:54.787Z,4.60
2023-03-19T08:56:22.894Z,4.50
2023-03-19T08:58:50.963Z,3.90
2023-03-19T09:01:20.603Z,3.70
2023-03-19T09:03:48.854Z,3.90
2023-03-19T09:06:16.991Z,3.70
2023-03-19T09:08:45.541Z,4.97
2023-03-19T09:11:14.497Z,3.50
2023-03-19T09:13:42.562Z,4.20
2023-03-19T09:16:11.190Z,3.90
2023-03-19T09:18:40.855Z,4.05
2023-03-19T09:21:08.892Z,4.10
2023-03-19T09:23:36.974Z,4.60
2023-03-19T09:26:05.389Z,3.40
2023-03-19T09:28:33.418Z,3.90
2023-03-19T09:31:07.321Z,3.00
2023-03-19T09:33:35.324Z,3.10
2023-03-19T09:36:05.321Z,3.20
2023-03-19T09:38:33.660Z,3.43
2023-03-19T09:41:11.323Z,4.07
2023-03-19T09:43:52.259Z,4.00
2023-03-19T09:46:23.601Z,4.17
2023-03-19T09:48:57.612Z,3.87
2023-03-19T09:51:31.505Z,3.97
2023-03-19T09:54:03.170Z,3.40
2023-03-19T09:56:33.851Z,3.90
2023-03-19T09:59:02.264Z,3.53
2023-03-19T10:01:35.371Z,3.70
2023-03-19T10:04:27.861Z,3.93
2023-03-19T10:07:06.746Z,3.80
2023-03-19T10:09:47.103Z,3.40
2023-03-19T10:12:27.640Z,3.60
2023-03-19T10:15:19.880Z,3.57
2023-03-19T10:17:55.705Z,3.43
2023-03-19T10:20:31.986Z,3.53
2023-03-19T10:23:12.007Z,2.80
2023-03-19T10:25:43.525Z,3.57
2023-03-19T10:28:16.160Z,3.00
2023-03-19T10:30:50.505Z,2.90
2023-03-19T10:33:25.029Z,2.90
2023-03-19T10:35:59.560Z,3.17
2023-03-19T10:38:29.371Z,3.10
2023-03-19T10:41:07.828Z,2.87
2023-03-19T10:43:37.338Z,3.40
2023-03-19T10:46:05.454Z,2.90
2023-03-19T10:48:34.783Z,3.27
2023-03-19T10:51:06.774Z,2.73
2023-03-19T10:53:37.604Z,2.77
2023-03-19T10:56:07.832Z,2.80
2023-03-19T10:58:37.099Z,2.70
2023-03-19T11:01:08.467Z,2.90
2023-03-19T11:03:38.203Z,3.10
2023-03-19T11:06:15.460Z,3.30
2023-03-19T11:08:51.461Z,3.30
2023-03-19T11:11:27.680Z,3.50
2023-03-19T11:13:55.696Z,2.70
2023-03-19T11:16:24.266Z,3.17
2023-03-19T11:18:52.484Z,3.17
2023-03-19T11:21:26.728Z,2.80
2023-03-19T11:24:03.566Z,4.00
2023-03-19T11:26:32.506Z,2.90
2023-03-19T11:29:05.188Z,2.80
2023-03-19T11:31:40.654Z,2.80
2023-03-19T11:34:24.398Z,2.93
2023-03-19T11:37:02.556Z,2.70
2023-03-19T11:39:41.192Z,2.40
2023-03-19T11:42:33.574Z,3.30
2023-03-19T11:45:15.303Z,2.37
2023-03-19T11:47:51.258Z,2.90
2023-03-19T11:50:27.178Z,3.33
2023-03-19T11:53:11.226Z,3.37
2023-03-19T11:55:45.642Z,3.53
2023-03-19T11:58:30.629Z,3.90
2023-03-19T12:01:00.729Z,3.03
2023-03-19T12:04:01.755Z,3.07
2023-03-19T12:06:46.792Z,2.80
2023-03-19T12:09:24.956Z,2.43
2023-03-19T12:11:59.747Z,2.80
2023-03-19T12:14:40.486Z,2.73
2023-03-19T12:17:26.136Z,2.97
2023-03-19T12:20:11.798Z,3.07
2023-03-19T12:22:50.992Z,2.40
2023-03-19T12:25:29.894Z,2.40
2023-03-19T12:28:04.178Z,2.63
2023-03-19T12:30:37.595Z,2.70
2023-03-19T12:33:15.396Z,3.40
2023-03-19T12:35:47.354Z,2.93
2023-03-19T12:38:23.734Z,2.13
2023-03-19T12:40:55.134Z,2.83
2023-03-19T12:43:29.393Z,2.50
2023-03-19T12:46:03.391Z,2.03
2023-03-19T12:48:36.829Z,2.30
2023-03-19T12:51:10.335Z,2.03
2023-03-19T12:53:48.701Z,2.40
2023-03-19T12:56:22.346Z,1.87
2023-03-19T12:59:00.058Z,1.90
2023-03-19T13:01:34.430Z,2.37
2023-03-19T13:04:10.232Z,2.23
2023-03-19T13:06:42.487Z,1.80
2023-03-19T13:09:17.533Z,1.47
2023-03-19T13:11:50.015Z,2.70
2023-03-19T13:14:25.935Z,1.90
2023-03-19T13:16:58.710Z,2.53
2023-03-19T13:19:32.832Z,2.47
2023-03-19T13:22:04.674Z,3.10
2023-03-19T13:24:36.249Z,2.60
2023-03-19T13:27:04.863Z,2.23
2023-03-19T13:29:36.928Z,4.80
2023-03-19T13:32:09.066Z,2.27
2023-03-19T13:34:38.501Z,2.17
2023-03-19T13:37:13.946Z,2.20
2023-03-19T13:39:43.237Z,2.10
2023-03-19T13:42:33.967Z,2.20
2023-03-19T13:45:05.308Z,2.10
2023-03-19T13:47:44.241Z,2.77
2023-03-19T13:50:31.071Z,2.00
2023-03-19T13:53:37.942Z,2.43
2023-03-19T13:56:15.955Z,2.77
2023-03-19T13:58:53.131Z,2.83
2023-03-19T14:01:44.841Z,3.07
2023-03-19T14:04:28.030Z,2.40
2023-03-19T14:06:59.385Z,2.70
2023-03-19T14:09:39.713Z,2.67
2023-03-19T14:12:24.509Z,3.60
2023-03-19T14:14:56.050Z,2.40
2023-03-19T14:17:29.244Z,2.70
2023-03-19T14:20:07.183Z,2.40
2023-03-19T14:22:39.918Z,2.20
2023-03-19T14:25:18.680Z,2.70
2023-03-19T14:27:49.378Z,2.73
2023-03-19T14:30:27.935Z,2.43
2023-03-19T14:33:02.315Z,3.10
2023-03-19T14:35:36.556Z,2.10
2023-03-19T14:38:12.758Z,3.17
2023-03-19T14:40:46.702Z,2.43
2023-03-19T14:43:27.170Z,2.33
2023-03-19T14:46:01.220Z,2.57
2023-03-19T14:49:15.885Z,2.33
2023-03-19T14:51:56.646Z,2.90
2023-03-19T14:54:36.912Z,2.65
2023-03-19T14:57:08.817Z,2.20
2023-03-19T14:59:40.465Z,2.20
2023-03-19T15:02:29.152Z,2.80
2023-03-19T15:05:00.684Z,2.72
2023-03-19T15:07:33.208Z,2.60
2023-03-19T15:10:06.650Z,2.65
2023-03-19T15:12:52.679Z,2.83
2023-03-19T15:15:44.533Z,2.63
2023-03-19T15:18:16.352Z,2.50
2023-03-19T15:20:47.226Z,2.70
2023-03-19T15:23:27.338Z,2.93
2023-03-19T15:25:57.939Z,2.50
2023-03-19T15:28:28.339Z,2.30
2023-03-19T15:31:05.638Z,2.78
2023-03-19T15:33:45.606Z,2.40
2023-03-19T15:36:19.289Z,2.47
2023-03-19T15:38:51.047Z,2.63
2023-03-19T15:41:20.580Z,2.50
2023-03-19T15:43:48.840Z,2.70
2023-03-19T15:46:20.643Z,2.37
2023-03-19T15:48:51.485Z,2.77
2023-03-19T15:51:23.230Z,3.03
2023-03-19T15:53:51.702Z,2.23
2023-03-19T15:56:21.672Z,3.03
2023-03-19T15:58:53.342Z,3.33
2023-03-19T16:01:22.499Z,2.20
2023-03-19T16:03:56.314Z,2.70
2023-03-19T16:06:28.336Z,2.60
2023-03-19T16:09:07.518Z,2.53
2023-03-19T16:11:37.905Z,2.37
2023-03-19T16:14:12.501Z,4.33
2023-03-19T16:16:42.345Z,3.00
2023-03-19T16:19:35.931Z,2.77
2023-03-19T16:22:13.813Z,3.40
2023-03-19T16:24:43.957Z,2.97
2023-03-19T16:27:15.305Z,3.03
2023-03-19T16:29:45.576Z,3.27
2023-03-19T16:32:22.054Z,2.77
2023-03-19T16:34:52.214Z,3.13
2023-03-19T16:37:35.922Z,3.80
2023-03-19T16:40:33.048Z,2.43
2023-03-19T16:43:08.911Z,2.80
2023-03-19T16:45:37.346Z,2.40
2023-03-19T16:48:05.947Z,2.33
2023-03-19T16:50:37.128Z,2.50
2023-03-19T16:53:14.150Z,2.90
2023-03-19T16:55:42.356Z,2.97
2023-03-19T16:58:15.132Z,3.47
2023-03-19T17:00:44.441Z,2.70
2023-03-19T17:03:14.913Z,2.90
2023-03-19T17:05:43.337Z,2.73
2023-03-19T17:08:13.700Z,2.60
2023-03-19T17:10:45.911Z,2.70
2023-03-19T17:13:19.281Z,2.80
2023-03-19T17:15:49.766Z,2.63
2023-03-19T17:18:20.879Z,2.70
2023-03-19T17:20:53.277Z,3.07
2023-03-19T17:23:24.480Z,3.17
2023-03-19T17:25:53.053Z,2.83
2023-03-19T17:28:21.144Z,3.10
2023-03-19T17:30:49.114Z,3.07
2023-03-19T17:33:24.938Z,3.10
2023-03-19T17:35:53.458Z,3.30
2023-03-19T17:38:26.941Z,3.67
2023-03-19T17:40:55.013Z,3.40
2023-03-19T17:43:22.865Z,3.50
2023-03-19T17:45:51.379Z,3.10
2023-03-19T17:48:22.725Z,3.43
2023-03-19T17:50:51.471Z,3.77
2023-03-19T17:53:20.019Z,3.60
2023-03-19T17:55:49.430Z,3.97
2023-03-19T17:58:19.560Z,3.80
2023-03-19T18:00:48.647Z,3.67
2023-03-19T18:03:18.908Z,4.10
2023-03-19T18:05:46.908Z,3.80
2023-03-19T18:08:17.379Z,3.37
2023-03-19T18:10:45.872Z,3.47
2023-03-19T18:13:15.358Z,4.00
2023-03-19T18:15:45.621Z,3.87
2023-03-19T18:18:18.152Z,3.53
2023-03-19T18:20:47.665Z,3.50
2023-03-19T18:23:16.690Z,3.87
2023-03-19T18:25:45.637Z,4.33
2023-03-19T18:28:15.051Z,3.70
2023-03-19T18:30:44.382Z,4.17
2023-03-19T18:33:16.327Z,4.17
2023-03-19T18:35:46.383Z,3.83
2023-03-19T18:38:16.883Z,3.40
2023-03-19T18:40:45.216Z,3.60
2023-03-19T18:43:16.307Z,3.90
2023-03-19T18:45:46.621Z,4.03
2023-03-19T18:48:22.199Z,4.30
2023-03-19T18:50:50.616Z,5.00
2023-03-19T18:53:18.543Z,4.20
2023-03-19T18:55:47.395Z,4.63
2023-03-19T18:58:20.679Z,4.57
2023-03-19T19:00:49.417Z,5.60
2023-03-19T19:03:21.068Z,5.03
2023-03-19T19:05:49.802Z,4.57
2023-03-19T19:08:19.786Z,4.90
2023-03-19T19:10:49.899Z,5.60
2023-03-19T19:13:22.397Z,5.20
2023-03-19T19:15:50.822Z,5.13
2023-03-19T19:18:20.581Z,6.60
2023-03-19T19:20:51.517Z,6.07
2023-03-19T19:23:20.636Z,6.57
2023-03-19T19:25:50.982Z,6.40
2023-03-19T19:28:26.841Z,6.60
2023-03-19T19:30:57.262Z,6.00
2023-03-19T19:33:28.743Z,5.57
2023-03-19T19:35:57.250Z,6.25
2023-03-19T19:38:25.728Z,9.73
2023-03-19T19:40:58.190Z,7.10
2023-03-19T19:43:31.234Z,7.90
2023-03-19T19:46:00.412Z,8.00
2023-03-19T19:48:30.618Z,6.90
2023-03-19T19:50:59.115Z,8.00
2023-03-19T19:53:29.553Z,10.33
2023-03-19T19:55:57.817Z,7.50
2023-03-19T19:58:29.343Z,6.90
2023-03-19T20:01:03.928Z,6.80
2023-03-19T20:03:34.236Z,7.10
2023-03-19T20:06:03.210Z,9.10
2023-03-19T20:08:31.191Z,8.90
2023-03-19T20:10:59.240Z,8.63
2023-03-19T20:13:30.905Z,8.70
2023-03-19T20:15:59.763Z,8.57
2023-03-19T20:18:31.028Z,7.90
2023-03-19T20:21:00.307Z,8.47
2023-03-19T20:23:28.824Z,6.50
2023-03-19T20:25:58.171Z,7.10
2023-03-19T20:28:32.656Z,6.93
2023-03-19T20:31:01.685Z,7.23
2023-03-19T20:33:31.215Z,5.80
2023-03-19T20:35:59.377Z,6.87
2023-03-19T20:38:29.211Z,6.70
2023-03-19T20:40:58.912Z,6.90
2023-03-19T20:43:30.632Z,5.67
2023-03-19T20:46:01.843Z,5.00
2023-03-19T20:48:30.804Z,5.65
2023-03-19T20:50:59.421Z,5.70
2023-03-19T20:53:27.848Z,5.50
2023-03-19T20:55:56.338Z,4.70
2023-03-19T20:58:27.630Z,4.50
2023-03-19T21:00:57.915Z,4.40
2023-03-19T21:03:28.149Z,4.37
2023-03-19T21:06:02.141Z,4.57
2023-03-19T21:08:34.228Z,3.70
2023-03-19T21:11:03.288Z,4.43
2023-03-19T21:13:32.436Z,5.00
2023-03-19T21:16:02.296Z,4.70
2023-03-19T21:18:30.726Z,4.60
2023-03-19T21:20:59.919Z,5.17
2023-03-19T21:23:31.475Z,5.00
2023-03-19T21:26:00.639Z,5.20
2023-03-19T21:28:32.697Z,6.57
2023-03-19T21:31:02.544Z,5.57
2023-03-19T21:33:33.025Z,5.23
2023-03-19T21:36:02.689Z,6.30
2023-03-19T21:38:32.972Z,5.23
2023-03-19T21:41:04.076Z,5.70
2023-03-19T21:43:35.242Z,5.37
2023-03-19T21:46:22.953Z,5.77
2023-03-19T21:48:52.435Z,6.00
2023-03-19T21:51:20.508Z,6.07
2023-03-19T21:53:49.004Z,6.90
2023-03-19T21:56:22.686Z,6.83
2023-03-19T21:58:52.531Z,6.03
2023-03-19T22:01:24.336Z,6.57
2023-03-19T22:03:53.009Z,5.47
2023-03-19T22:06:22.175Z,5.43
2023-03-19T22:08:51.650Z,6.77
2023-03-19T22:11:24.207Z,6.93
2023-03-19T22:13:52.277Z,5.60
2023-03-19T22:16:24.822Z,5.77
2023-03-19T22:18:53.575Z,6.43
2023-03-19T22:21:23.548Z,5.10
2023-03-19T22:23:52.347Z,5.10
2023-03-19T22:26:28.744Z,5.80
2023-03-19T22:28:58.335Z,6.00
2023-03-19T22:31:28.617Z,6.60
2023-03-19T22:33:57.223Z,5.97
2023-03-19T22:36:25.520Z,6.20
2023-03-19T22:38:53.462Z,5.73
2023-03-19T22:41:27.856Z,6.00
2023-03-19T22:43:57.217Z,6.07
2023-03-19T22:46:27.811Z,6.43
2023-03-19T22:48:56.668Z,5.97
2023-03-19T22:51:27.467Z,6.23
2023-03-19T22:53:56.208Z,5.80
2023-03-19T22:56:24.559Z,5.73
2023-03-19T22:58:52.985Z,5.77
2023-03-19T23:01:34.817Z,6.00
2023-03-19T23:04:18.170Z,5.33
2023-03-19T23:06:46.718Z,5.67
2023-03-19T23:09:16.944Z,6.20
2023-03-19T23:11:45.092Z,5.90
2023-03-19T23:14:27.923Z,5.67
2023-03-19T23:17:00.054Z,6.10
2023-03-19T23:19:31.149Z,4.90
2023-03-19T23:22:00.517Z,5.90
2023-03-19T23:24:30.397Z,5.47
2023-03-19T23:26:59.741Z,5.27
2023-03-19T23:29:31.247Z,5.30
2023-03-19T23:32:00.894Z,5.33
2023-03-19T23:34:29.701Z,5.00
2023-03-19T23:36:59.796Z,5.03
2023-03-19T23:39:28.513Z,4.67
2023-03-19T23:41:59.133Z,4.87
2023-03-19T23:44:28.891Z,4.70
2023-03-19T23:46:59.352Z,5.37
2023-03-19T23:49:30.164Z,4.80
2023-03-19T23:51:59.091Z,4.47
2023-03-19T23:54:30.081Z,4.60
2023-03-19T23:56:59.898Z,4.33
2023-03-19T23:59:30.606Z,4.40
